createdAt,value
2022-10-12T00:01:32.104Z,6.93
2022-10-12T00:03:58.885Z,10.93
2022-10-12T00:06:25.703Z,16.67
2022-10-12T00:08:54.260Z,9.17
2022-10-12T00:11:26.187Z,5.43
2022-10-12T00:13:54.499Z,13.13
2022-10-12T00:16:23.140Z,11.73
2022-10-12T00:18:54.470Z,8.17
2022-10-12T00:21:22.459Z,8.67
2022-10-12T00:23:49.806Z,13.57
2022-10-12T00:26:21.466Z,9.47
2022-10-12T00:28:49.232Z,6.17
2022-10-12T00:31:18.402Z,11.63
2022-10-12T00:33:46.701Z,7.53
2022-10-12T00:36:15.475Z,6.30
2022-10-12T00:38:42.259Z,9.30
2022-10-12T00:41:08.949Z,9.03
2022-10-12T00:43:39.113Z,6.80
2022-10-12T00:46:13.814Z,12.80
2022-10-12T00:48:41.333Z,11.30
2022-10-12T00:51:09.779Z,6.93
2022-10-12T00:53:42.564Z,10.23
2022-10-12T00:56:16.041Z,7.83
2022-10-12T00:58:42.924Z,6.00
2022-10-12T01:01:10.503Z,7.13
2022-10-12T01:03:37.593Z,5.37
2022-10-12T01:06:06.234Z,6.73
2022-10-12T01:08:33.491Z,8.13
2022-10-12T01:11:00.100Z,8.80
2022-10-12T01:13:26.937Z,10.07
2022-10-12T01:16:03.167Z,6.07
2022-10-12T01:18:40.298Z,8.83
2022-10-12T01:21:13.922Z,7.07
2022-10-12T01:23:55.801Z,6.77
2022-10-12T01:26:39.796Z,4.63
2022-10-12T01:29:40.451Z,6.47
2022-10-12T01:32:25.784Z,5.63
2022-10-12T01:35:05.316Z,6.97
2022-10-12T01:37:48.827Z,6.17
2022-10-12T01:40:24.140Z,9.90
2022-10-12T01:42:51.492Z,8.87
2022-10-12T01:45:19.205Z,13.63
2022-10-12T01:47:49.810Z,7.93
2022-10-12T01:50:17.481Z,6.07
2022-10-12T01:52:59.273Z,7.73
2022-10-12T01:55:39.575Z,8.13
2022-10-12T01:58:23.473Z,9.10
2022-10-12T02:01:29.032Z,8.13
2022-10-12T02:04:13.667Z,6.57
2022-10-12T02:06:47.132Z,7.30
2022-10-12T02:09:32.958Z,9.97
2022-10-12T02:12:05.524Z,5.03
2022-10-12T02:14:41.110Z,3.57
2022-10-12T02:17:12.370Z,9.10
2022-10-12T02:19:45.026Z,6.77
2022-10-12T02:22:35.668Z,7.37
2022-10-12T02:25:11.033Z,6.20
2022-10-12T02:27:42.325Z,5.83
2022-10-12T02:30:10.215Z,4.40
2022-10-12T02:32:42.180Z,5.47
2022-10-12T02:35:25.363Z,7.30
2022-10-12T02:37:54.839Z,9.20
2022-10-12T02:40:37.642Z,6.60
2022-10-12T02:43:13.646Z,6.53
2022-10-12T02:45:44.586Z,9.07
2022-10-12T02:48:16.135Z,5.77
2022-10-12T02:50:43.764Z,7.37
2022-10-12T02:53:12.532Z,8.87
2022-10-12T02:55:48.039Z,11.27
2022-10-12T02:58:14.709Z,9.83
2022-10-12T03:00:41.384Z,6.40
2022-10-12T03:03:07.990Z,11.10
2022-10-12T03:05:34.590Z,5.13
2022-10-12T03:08:01.208Z,8.63
2022-10-12T03:10:27.877Z,6.33
2022-10-12T03:12:54.698Z,8.83
2022-10-12T03:15:21.877Z,5.17
2022-10-12T03:17:48.511Z,7.83
2022-10-12T03:20:15.681Z,7.77
2022-10-12T03:22:42.297Z,5.40
2022-10-12T03:25:09.130Z,7.23
2022-10-12T03:27:39.003Z,5.43
2022-10-12T03:30:06.575Z,5.97
2022-10-12T03:32:33.376Z,5.07
2022-10-12T03:35:00.369Z,9.77
2022-10-12T03:37:27.189Z,6.73
2022-10-12T03:39:53.865Z,6.90
2022-10-12T03:42:20.758Z,6.13
2022-10-12T03:44:47.378Z,12.07
2022-10-12T03:47:14.030Z,6.93
2022-10-12T03:49:40.639Z,6.40
2022-10-12T03:52:07.720Z,7.10
2022-10-12T03:54:34.565Z,5.00
2022-10-12T03:57:01.225Z,6.43
2022-10-12T03:59:28.139Z,7.27
2022-10-12T04:01:54.885Z,5.30
2022-10-12T04:04:21.986Z,8.00
2022-10-12T04:06:48.679Z,5.80
2022-10-12T04:09:18.548Z,6.13
2022-10-12T04:11:45.141Z,8.80
2022-10-12T04:14:12.040Z,8.13
2022-10-12T04:16:38.765Z,5.20
2022-10-12T04:19:05.355Z,6.90
2022-10-12T04:21:32.101Z,7.13
2022-10-12T04:23:58.990Z,5.60
2022-10-12T04:26:25.607Z,7.77
2022-10-12T04:28:52.255Z,9.37
2022-10-12T04:31:18.946Z,7.50
2022-10-12T04:33:45.870Z,9.33
2022-10-12T04:36:12.669Z,7.37
2022-10-12T04:38:39.481Z,6.37
2022-10-12T04:41:09.206Z,7.97
2022-10-12T04:43:35.823Z,11.13
2022-10-12T04:46:02.965Z,5.13
2022-10-12T04:48:29.650Z,6.87
2022-10-12T04:50:58.596Z,5.60
2022-10-12T04:53:25.249Z,5.80
2022-10-12T04:55:51.876Z,6.73
2022-10-12T04:58:18.894Z,7.67
2022-10-12T05:00:47.988Z,7.90
2022-10-12T05:03:14.960Z,15.70
2022-10-12T05:05:44.534Z,5.77
2022-10-12T05:08:12.096Z,6.20
2022-10-12T05:10:39.944Z,6.47
2022-10-12T05:13:09.125Z,10.30
2022-10-12T05:15:35.873Z,9.03
2022-10-12T05:18:02.437Z,5.30
2022-10-12T05:20:29.048Z,6.83
2022-10-12T05:22:57.964Z,19.07
2022-10-12T05:25:24.815Z,19.93
2022-10-12T05:27:51.505Z,12.43
2022-10-12T05:30:18.258Z,7.57
2022-10-12T05:32:44.985Z,9.67
2022-10-12T05:35:11.767Z,6.97
2022-10-12T05:37:39.067Z,8.03
2022-10-12T05:40:06.996Z,5.17
2022-10-12T05:42:34.665Z,6.10
2022-10-12T05:45:01.820Z,5.13
2022-10-12T05:47:30.742Z,4.50
2022-10-12T05:49:57.315Z,11.57
2022-10-12T05:52:24.188Z,10.70
2022-10-12T05:54:50.901Z,6.13
2022-10-12T05:57:17.620Z,6.40
2022-10-12T05:59:46.458Z,5.77
2022-10-12T06:02:15.127Z,6.27
2022-10-12T06:04:41.980Z,9.67
2022-10-12T06:07:08.957Z,8.20
2022-10-12T06:09:38.778Z,8.93
2022-10-12T06:12:06.605Z,7.20
2022-10-12T06:14:33.526Z,8.20
2022-10-12T06:17:00.306Z,12.87
2022-10-12T06:19:27.078Z,9.57
2022-10-12T06:21:56.391Z,6.37
2022-10-12T06:24:23.034Z,9.50
2022-10-12T06:26:49.652Z,11.63
2022-10-12T06:29:17.460Z,10.23
2022-10-12T06:31:48.991Z,5.50
2022-10-12T06:34:18.429Z,7.27
2022-10-12T06:36:45.130Z,10.03
2022-10-12T06:39:11.979Z,10.00
2022-10-12T06:41:39.051Z,10.23
2022-10-12T06:44:08.851Z,14.20
2022-10-12T06:46:36.019Z,9.57
2022-10-12T06:49:03.667Z,5.10
2022-10-12T06:51:30.279Z,8.00
2022-10-12T06:53:57.062Z,9.43
2022-10-12T06:56:23.672Z,6.63
2022-10-12T06:58:57.247Z,7.30
2022-10-12T07:01:24.241Z,6.80
2022-10-12T07:03:51.808Z,8.13
2022-10-12T07:06:18.869Z,7.47
2022-10-12T07:08:45.932Z,10.50
2022-10-12T07:11:13.549Z,8.17
2022-10-12T07:13:40.454Z,9.13
2022-10-12T07:16:07.481Z,7.40
2022-10-12T07:18:34.551Z,4.90
2022-10-12T07:21:02.689Z,15.17
2022-10-12T07:23:33.521Z,5.67
2022-10-12T07:26:00.658Z,9.97
2022-10-12T07:28:28.035Z,6.10
2022-10-12T07:30:54.766Z,7.07
2022-10-12T07:33:21.405Z,7.27
2022-10-12T07:36:13.308Z,15.20
2022-10-12T07:38:43.992Z,8.13
2022-10-12T07:41:11.362Z,8.37
2022-10-12T07:43:39.009Z,4.93
2022-10-12T07:46:06.211Z,9.50
2022-10-12T07:48:34.054Z,12.43
2022-10-12T07:51:05.405Z,19.13
2022-10-12T07:53:34.256Z,13.80
2022-10-12T07:56:06.827Z,14.93
2022-10-12T07:58:33.880Z,13.60
2022-10-12T08:01:08.161Z,20.60
2022-10-12T08:03:35.361Z,13.97
2022-10-12T08:06:12.944Z,10.27
2022-10-12T08:08:40.318Z,10.70
2022-10-12T08:11:08.108Z,16.90
2022-10-12T08:13:35.444Z,10.10
2022-10-12T08:16:04.838Z,12.40
2022-10-12T08:18:31.881Z,10.77
2022-10-12T08:20:58.592Z,12.27
2022-10-12T08:23:25.672Z,12.20
2022-10-12T08:25:53.605Z,11.13
2022-10-12T08:28:20.704Z,19.03
2022-10-12T08:30:47.394Z,14.93
2022-10-12T08:33:15.392Z,12.83
2022-10-12T08:35:42.804Z,8.97
2022-10-12T08:38:11.302Z,11.70
2022-10-12T08:40:47.047Z,15.10
2022-10-12T08:43:46.249Z,8.87
2022-10-12T08:46:13.345Z,12.93
2022-10-12T08:48:52.369Z,9.43
2022-10-12T08:51:24.655Z,11.63
2022-10-12T08:53:57.384Z,6.97
2022-10-12T08:56:24.862Z,12.80
2022-10-12T08:58:53.101Z,12.70
2022-10-12T09:01:19.763Z,10.23
2022-10-12T09:04:25.783Z,8.80
2022-10-12T09:07:10.526Z,8.80
2022-10-12T09:10:05.197Z,10.33
2022-10-12T09:12:46.779Z,10.07
2022-10-12T09:15:31.012Z,10.60
2022-10-12T09:18:00.336Z,19.10
2022-10-12T09:20:54.303Z,16.97
2022-10-12T09:23:30.601Z,24.57
2022-10-12T09:26:04.368Z,16.43
2022-10-12T09:28:49.051Z,24.97
2022-10-12T09:31:50.763Z,21.73
2022-10-12T09:34:19.395Z,12.73
2022-10-12T09:36:46.531Z,23.40
2022-10-12T09:39:18.713Z,22.67
2022-10-12T09:41:47.475Z,19.90
2022-10-12T09:44:28.422Z,11.57
2022-10-12T09:47:21.817Z,14.40
2022-10-12T09:49:50.397Z,12.63
2022-10-12T09:52:24.804Z,10.63
2022-10-12T09:55:05.283Z,13.30
2022-10-12T09:57:36.851Z,19.10
2022-10-12T10:00:08.697Z,21.03
2022-10-12T10:02:50.295Z,14.73
2022-10-12T10:05:32.116Z,12.73
2022-10-12T10:08:14.060Z,12.43
2022-10-12T10:10:55.509Z,19.10
2022-10-12T10:13:26.495Z,12.20
2022-10-12T10:16:04.828Z,18.90
2022-10-12T10:18:39.328Z,12.87
2022-10-12T10:21:14.649Z,11.80
2022-10-12T10:23:54.866Z,16.33
2022-10-12T10:26:24.037Z,13.37
2022-10-12T10:28:56.750Z,19.23
2022-10-12T10:31:28.018Z,12.93
2022-10-12T10:34:15.947Z,20.10
2022-10-12T10:36:56.422Z,15.67
2022-10-12T10:39:31.391Z,13.57
2022-10-12T10:42:12.789Z,17.87
2022-10-12T10:44:39.647Z,14.13
2022-10-12T10:47:12.649Z,14.13
2022-10-12T10:49:45.650Z,10.03
2022-10-12T10:52:26.658Z,11.47
2022-10-12T10:55:18.272Z,10.43
2022-10-12T10:57:54.914Z,14.03
2022-10-12T11:00:40.286Z,15.77
2022-10-12T11:03:25.546Z,9.47
2022-10-12T11:05:59.594Z,13.97
2022-10-12T11:08:30.395Z,14.43
2022-10-12T11:11:06.947Z,12.13
2022-10-12T11:13:55.673Z,19.50
2022-10-12T11:16:36.069Z,11.97
2022-10-12T11:19:18.164Z,19.63
2022-10-12T11:21:54.958Z,16.20
2022-10-12T11:24:31.912Z,18.87
2022-10-12T11:27:11.244Z,18.63
2022-10-12T11:29:38.403Z,12.60
2022-10-12T11:32:31.566Z,20.27
2022-10-12T11:35:03.035Z,20.43
2022-10-12T11:37:39.794Z,15.43
2022-10-12T11:40:17.215Z,124.50
2022-10-12T11:42:43.999Z,34.90
2022-10-12T11:45:20.888Z,28.87
2022-10-12T11:47:55.249Z,45.00
2022-10-12T11:50:37.052Z,23.23
2022-10-12T11:53:11.230Z,13.83
2022-10-12T11:55:44.435Z,23.83
2022-10-12T11:58:24.452Z,18.47
2022-10-12T12:01:22.628Z,61.27
2022-10-12T12:04:36.845Z,24.17
2022-10-12T12:07:06.794Z,19.23
2022-10-12T12:09:45.320Z,21.90
2022-10-12T12:12:28.273Z,22.30
2022-10-12T12:14:54.922Z,25.60
2022-10-12T12:17:26.942Z,19.43
2022-10-12T12:19:59.619Z,17.47
2022-10-12T12:22:44.890Z,23.10
2022-10-12T12:25:11.433Z,29.87
2022-10-12T12:28:15.477Z,19.83
2022-10-12T12:30:54.620Z,17.17
2022-10-12T12:33:21.131Z,15.17
2022-10-12T12:35:56.507Z,17.80
2022-10-12T12:38:28.127Z,16.50
2022-10-12T12:41:13.607Z,15.20
2022-10-12T12:43:56.063Z,16.90
2022-10-12T12:46:25.812Z,11.03
2022-10-12T12:48:52.360Z,15.50
2022-10-12T12:51:35.776Z,15.30
2022-10-12T12:54:20.461Z,48.93
2022-10-12T12:57:08.916Z,47.83
2022-10-12T13:00:04.294Z,21.37
2022-10-12T13:02:50.791Z,22.00
2022-10-12T13:05:57.226Z,18.63
2022-10-12T13:08:39.305Z,60.43
2022-10-12T13:11:33.639Z,66.60
2022-10-12T13:14:39.203Z,102.27
2022-10-12T13:17:40.430Z,57.77
2022-10-12T13:20:29.744Z,15.07
2022-10-12T13:22:58.326Z,22.50
2022-10-12T13:25:58.925Z,19.20
2022-10-12T13:28:29.513Z,20.83
2022-10-12T13:31:04.335Z,15.37
2022-10-12T13:33:41.473Z,15.50
2022-10-12T13:36:21.391Z,20.90
2022-10-12T13:38:48.246Z,19.70
2022-10-12T13:41:18.912Z,18.60
2022-10-12T13:43:48.638Z,14.87
2022-10-12T13:46:35.873Z,21.00
2022-10-12T13:49:04.294Z,16.23
2022-10-12T13:51:31.865Z,16.07
2022-10-12T13:53:58.619Z,24.67
2022-10-12T13:56:28.185Z,15.47
2022-10-12T13:59:04.126Z,18.47
2022-10-12T14:01:35.377Z,14.00
2022-10-12T14:04:05.463Z,16.10
2022-10-12T14:06:35.276Z,16.60
2022-10-12T14:09:17.128Z,20.03
2022-10-12T14:11:45.213Z,15.60
2022-10-12T14:14:29.884Z,14.97
2022-10-12T14:16:56.719Z,11.17
2022-10-12T14:19:36.066Z,17.20
2022-10-12T14:22:03.433Z,14.73
2022-10-12T14:24:30.748Z,11.13
2022-10-12T14:27:02.829Z,16.37
2022-10-12T14:29:32.571Z,17.53
2022-10-12T14:32:01.940Z,16.20
2022-10-12T14:34:31.934Z,12.03
2022-10-12T14:37:04.847Z,14.80
2022-10-12T14:39:31.919Z,54.70
2022-10-12T14:42:18.016Z,20.17
2022-10-12T14:44:44.847Z,51.93
2022-10-12T14:47:20.516Z,38.47
2022-10-12T14:49:49.134Z,21.43
2022-10-12T14:52:37.870Z,29.77
2022-10-12T14:55:05.625Z,38.87
2022-10-12T14:57:32.648Z,28.20
2022-10-12T14:59:59.256Z,25.27
2022-10-12T15:02:28.344Z,24.23
2022-10-12T15:04:56.471Z,34.60
2022-10-12T15:07:25.915Z,33.03
2022-10-12T15:09:53.430Z,32.30
2022-10-12T15:12:22.677Z,26.10
2022-10-12T15:14:51.481Z,28.43
2022-10-12T15:17:19.371Z,17.07
2022-10-12T15:19:48.647Z,17.63
2022-10-12T15:22:24.023Z,19.17
2022-10-12T15:24:52.982Z,26.00
2022-10-12T15:27:20.344Z,17.30
2022-10-12T15:29:48.081Z,16.33
2022-10-12T15:32:17.748Z,18.60
2022-10-12T15:34:45.145Z,30.93
2022-10-12T15:37:12.245Z,69.17
2022-10-12T15:39:39.185Z,77.83
2022-10-12T15:42:06.124Z,34.90
2022-10-12T15:44:42.651Z,65.67
2022-10-12T15:47:10.991Z,26.77
2022-10-12T15:49:38.490Z,22.73
2022-10-12T15:52:06.337Z,25.97
2022-10-12T15:54:32.949Z,20.90
2022-10-12T15:56:59.796Z,28.23
2022-10-12T15:59:27.245Z,24.57
2022-10-12T16:01:54.424Z,26.67
2022-10-12T16:04:21.188Z,12.20
2022-10-12T16:06:47.780Z,12.37
2022-10-12T16:09:14.439Z,13.47
2022-10-12T16:11:41.492Z,13.30
2022-10-12T16:14:10.679Z,16.17
2022-10-12T16:16:37.734Z,15.03
2022-10-12T16:19:04.736Z,18.73
2022-10-12T16:21:31.351Z,20.90
2022-10-12T16:23:59.030Z,23.23
2022-10-12T16:26:27.173Z,15.33
2022-10-12T16:28:53.777Z,20.43
2022-10-12T16:31:20.517Z,21.93
2022-10-12T16:33:47.998Z,16.47
2022-10-12T16:36:16.584Z,15.07
2022-10-12T16:38:43.906Z,23.03
2022-10-12T16:41:12.392Z,18.17
2022-10-12T16:43:39.157Z,17.10
2022-10-12T16:46:06.707Z,18.23
2022-10-12T16:48:33.729Z,21.93
2022-10-12T16:51:00.546Z,14.27
2022-10-12T16:53:27.495Z,19.23
2022-10-12T16:55:56.477Z,20.90
2022-10-12T16:58:23.333Z,19.23
2022-10-12T17:00:50.100Z,19.70
2022-10-12T17:03:16.800Z,29.07
2022-10-12T17:05:43.422Z,27.37
2022-10-12T17:08:15.334Z,17.47
2022-10-12T17:10:44.118Z,16.53
2022-10-12T17:13:13.186Z,18.43
2022-10-12T17:15:41.553Z,19.30
2022-10-12T17:18:08.763Z,19.80
2022-10-12T17:20:36.473Z,15.57
2022-10-12T17:23:03.967Z,15.27
2022-10-12T17:25:30.651Z,22.60
2022-10-12T17:27:57.351Z,20.63
2022-10-12T17:30:24.035Z,24.20
2022-10-12T17:32:50.750Z,28.97
2022-10-12T17:35:17.538Z,40.83
2022-10-12T17:37:44.348Z,39.13
2022-10-12T17:40:11.447Z,34.67
2022-10-12T17:42:38.192Z,29.37
2022-10-12T17:45:05.282Z,19.97
2022-10-12T17:47:31.988Z,22.10
2022-10-12T17:49:58.578Z,24.53
2022-10-12T17:52:25.236Z,18.20
2022-10-12T17:54:51.795Z,13.90
2022-10-12T17:57:18.867Z,19.37
2022-10-12T17:59:45.939Z,25.33
2022-10-12T18:02:12.630Z,20.07
2022-10-12T18:04:39.321Z,21.63
2022-10-12T18:07:05.951Z,22.00
2022-10-12T18:09:32.538Z,18.30
2022-10-12T18:11:59.164Z,18.27
2022-10-12T18:14:25.850Z,12.33
2022-10-12T18:16:54.265Z,13.07
2022-10-12T18:19:20.998Z,16.10
2022-10-12T18:21:47.641Z,15.40
2022-10-12T18:24:17.553Z,14.60
2022-10-12T18:26:45.901Z,13.67
2022-10-12T18:29:15.425Z,12.23
2022-10-12T18:31:42.140Z,14.73
2022-10-12T18:34:09.035Z,15.37
2022-10-12T18:36:35.710Z,13.83
2022-10-12T18:39:04.599Z,12.23
2022-10-12T18:41:31.688Z,14.00
2022-10-12T18:44:00.605Z,12.40
2022-10-12T18:46:29.102Z,21.53
2022-10-12T18:48:56.116Z,15.10
2022-10-12T18:51:29.751Z,13.40
2022-10-12T18:53:57.881Z,16.60
2022-10-12T18:56:25.639Z,16.23
2022-10-12T18:58:52.564Z,17.83
2022-10-12T19:01:22.708Z,14.30
2022-10-12T19:03:50.115Z,17.60
2022-10-12T19:06:20.294Z,26.57
2022-10-12T19:08:50.556Z,22.53
2022-10-12T19:11:20.055Z,24.53
2022-10-12T19:13:55.289Z,15.37
2022-10-12T19:16:23.039Z,11.90
2022-10-12T19:18:55.630Z,10.87
2022-10-12T19:21:22.514Z,11.07
2022-10-12T19:23:49.090Z,12.33
2022-10-12T19:26:18.190Z,12.93
2022-10-12T19:28:45.963Z,19.73
2022-10-12T19:31:21.881Z,25.60
2022-10-12T19:33:49.296Z,19.37
2022-10-12T19:36:18.317Z,21.47
2022-10-12T19:38:46.305Z,20.97
2022-10-12T19:41:13.227Z,18.97
2022-10-12T19:43:40.824Z,16.27
2022-10-12T19:46:10.406Z,21.80
2022-10-12T19:48:40.994Z,24.37
2022-10-12T19:51:12.973Z,17.13
2022-10-12T19:53:40.678Z,17.53
2022-10-12T19:56:15.716Z,19.17
2022-10-12T19:58:45.114Z,20.63
2022-10-12T20:01:14.847Z,23.03
2022-10-12T20:03:47.455Z,22.40
2022-10-12T20:06:14.814Z,13.87
2022-10-12T20:08:42.980Z,18.90
2022-10-12T20:11:16.956Z,16.03
2022-10-12T20:13:46.185Z,16.67
2022-10-12T20:16:14.042Z,17.17
2022-10-12T20:18:41.048Z,16.70
2022-10-12T20:21:09.906Z,17.93
2022-10-12T20:23:38.100Z,18.63
2022-10-12T20:26:08.204Z,21.73
2022-10-12T20:28:36.520Z,37.63
2022-10-12T20:31:05.918Z,27.97
2022-10-12T20:33:39.923Z,29.73
2022-10-12T20:36:27.493Z,19.43
2022-10-12T20:38:54.480Z,18.60
2022-10-12T20:41:25.398Z,21.07
2022-10-12T20:44:00.252Z,17.93
2022-10-12T20:46:28.191Z,19.17
2022-10-12T20:48:58.979Z,19.33
2022-10-12T20:51:32.258Z,17.83
2022-10-12T20:54:00.856Z,20.67
2022-10-12T20:56:29.170Z,20.60
2022-10-12T20:58:56.027Z,19.43
2022-10-12T21:01:24.345Z,20.83
2022-10-12T21:03:52.675Z,23.53
2022-10-12T21:06:21.535Z,25.07
2022-10-12T21:08:53.675Z,17.43
2022-10-12T21:11:21.595Z,18.73
2022-10-12T21:13:48.643Z,20.57
2022-10-12T21:16:16.504Z,18.90
2022-10-12T21:18:43.708Z,23.93
2022-10-12T21:21:14.107Z,22.73
2022-10-12T21:23:41.977Z,21.23
2022-10-12T21:26:17.102Z,25.57
2022-10-12T21:28:44.824Z,17.97
2022-10-12T21:31:13.123Z,23.23
2022-10-12T21:33:40.449Z,22.57
2022-10-12T21:36:10.236Z,23.07
2022-10-12T21:38:37.305Z,18.37
2022-10-12T21:41:05.164Z,17.03
2022-10-12T21:43:35.262Z,20.00
2022-10-12T21:46:10.508Z,23.93
2022-10-12T21:48:37.561Z,16.87
2022-10-12T21:51:05.861Z,20.40
2022-10-12T21:53:34.739Z,19.23
2022-10-12T21:56:14.300Z,19.70
2022-10-12T21:58:41.208Z,20.33
2022-10-12T22:01:10.963Z,20.17
2022-10-12T22:03:37.860Z,21.50
2022-10-12T22:06:04.859Z,18.87
2022-10-12T22:08:32.236Z,21.90
2022-10-12T22:11:06.986Z,20.97
2022-10-12T22:13:34.628Z,20.53
2022-10-12T22:16:04.053Z,20.63
2022-10-12T22:18:31.008Z,22.33
2022-10-12T22:20:58.044Z,24.10
2022-10-12T22:23:24.733Z,17.37
2022-10-12T22:25:53.328Z,16.20
2022-10-12T22:28:20.007Z,19.57
2022-10-12T22:30:46.927Z,15.43
2022-10-12T22:33:13.640Z,21.97
2022-10-12T22:35:40.214Z,18.87
2022-10-12T22:38:06.810Z,19.67
2022-10-12T22:40:33.472Z,23.13
2022-10-12T22:43:00.196Z,28.43
2022-10-12T22:45:28.137Z,26.77
2022-10-12T22:47:54.916Z,19.70
2022-10-12T22:50:21.698Z,19.10
2022-10-12T22:52:48.676Z,23.37
2022-10-12T22:55:15.657Z,29.93
2022-10-12T22:57:42.337Z,22.43
2022-10-12T23:00:09.464Z,27.37
2022-10-12T23:02:36.077Z,23.13
2022-10-12T23:05:03.399Z,31.17
2022-10-12T23:07:30.091Z,25.17
2022-10-12T23:09:56.680Z,22.93
2022-10-12T23:12:23.353Z,28.67
2022-10-12T23:14:51.246Z,25.20
2022-10-12T23:17:17.879Z,26.00
2022-10-12T23:19:44.447Z,21.33
2022-10-12T23:22:11.220Z,23.80
2022-10-12T23:24:40.182Z,21.33
2022-10-12T23:27:06.808Z,22.90
2022-10-12T23:29:33.585Z,24.90
2022-10-12T23:32:00.306Z,17.63
2022-10-12T23:34:26.983Z,18.97
2022-10-12T23:36:53.873Z,17.27
2022-10-12T23:39:22.267Z,22.50
2022-10-12T23:41:49.767Z,17.83
2022-10-12T23:44:16.806Z,21.57
2022-10-12T23:46:44.486Z,19.53
2022-10-12T23:49:11.503Z,18.00
2022-10-12T23:51:39.870Z,18.83
2022-10-12T23:54:06.917Z,17.43
2022-10-12T23:56:34.235Z,15.33
2022-10-12T23:59:01.342Z,17.77
